sensor_id;sensor_type;location;lat;lon;timestamp;P1;durP1;ratioP1;P2;durP2;ratioP2
47103;SDS011;32853;52.164;5.400;2022-10-10T00:01:50;7.05;;;3.00;;
47103;SDS011;32853;52.164;5.400;2022-10-10T00:07:00;7.38;;;3.50;;
47103;SDS011;32853;52.164;5.400;2022-10-10T00:09:25;6.15;;;2.70;;
47103;SDS011;32853;52.164;5.400;2022-10-10T00:11:51;8.15;;;3.00;;
47103;SDS011;32853;52.164;5.400;2022-10-10T00:14:16;8.00;;;2.58;;
47103;SDS011;32853;52.164;5.400;2022-10-10T00:16:41;4.22;;;2.55;;
47103;SDS011;32853;52.164;5.400;2022-10-10T00:19:07;5.65;;;3.13;;
47103;SDS011;32853;52.164;5.400;2022-10-10T00:21:32;5.53;;;2.67;;
47103;SDS011;32853;52.164;5.400;2022-10-10T00:23:57;4.10;;;2.83;;
47103;SDS011;32853;52.164;5.400;2022-10-10T00:26:24;7.35;;;2.75;;
47103;SDS011;32853;52.164;5.400;2022-10-10T00:28:50;7.25;;;3.28;;
47103;SDS011;32853;52.164;5.400;2022-10-10T00:31:15;5.28;;;2.85;;
47103;SDS011;32853;52.164;5.400;2022-10-10T00:33:42;6.00;;;3.30;;
47103;SDS011;32853;52.164;5.400;2022-10-10T00:36:08;8.30;;;3.30;;
47103;SDS011;32853;52.164;5.400;2022-10-10T00:38:34;9.60;;;3.60;;
47103;SDS011;32853;52.164;5.400;2022-10-10T00:41:00;8.85;;;3.13;;
47103;SDS011;32853;52.164;5.400;2022-10-10T00:43:26;6.95;;;3.65;;
47103;SDS011;32853;52.164;5.400;2022-10-10T00:45:52;7.32;;;2.88;;
47103;SDS011;32853;52.164;5.400;2022-10-10T00:48:19;4.88;;;3.03;;
47103;SDS011;32853;52.164;5.400;2022-10-10T00:50:53;7.28;;;3.15;;
47103;SDS011;32853;52.164;5.400;2022-10-10T00:53:22;10.02;;;3.25;;
47103;SDS011;32853;52.164;5.400;2022-10-10T00:55:51;4.93;;;3.22;;
47103;SDS011;32853;52.164;5.400;2022-10-10T00:58:18;7.53;;;2.88;;
47103;SDS011;32853;52.164;5.400;2022-10-10T01:00:45;5.50;;;2.92;;
47103;SDS011;32853;52.164;5.400;2022-10-10T01:03:10;8.77;;;3.10;;
47103;SDS011;32853;52.164;5.400;2022-10-10T01:05:36;6.13;;;3.22;;
47103;SDS011;32853;52.164;5.400;2022-10-10T01:08:03;8.82;;;3.13;;
47103;SDS011;32853;52.164;5.400;2022-10-10T01:10:30;9.70;;;3.50;;
47103;SDS011;32853;52.164;5.400;2022-10-10T01:15:46;5.35;;;3.70;;
47103;SDS011;32853;52.164;5.400;2022-10-10T01:29:53;7.40;;;3.30;;
47103;SDS011;32853;52.164;5.400;2022-10-10T01:32:30;8.32;;;3.92;;
47103;SDS011;32853;52.164;5.400;2022-10-10T01:37:33;7.80;;;3.38;;
47103;SDS011;32853;52.164;5.400;2022-10-10T01:40:23;10.25;;;3.90;;
47103;SDS011;32853;52.164;5.400;2022-10-10T01:43:17;8.05;;;3.47;;
47103;SDS011;32853;52.164;5.400;2022-10-10T01:45:46;11.05;;;3.45;;
47103;SDS011;32853;52.164;5.400;2022-10-10T01:48:13;4.75;;;3.50;;
47103;SDS011;32853;52.164;5.400;2022-10-10T01:59:10;6.70;;;3.53;;
47103;SDS011;32853;52.164;5.400;2022-10-10T02:02:00;9.25;;;3.90;;
47103;SDS011;32853;52.164;5.400;2022-10-10T02:04:49;13.13;;;3.13;;
47103;SDS011;32853;52.164;5.400;2022-10-10T02:07:22;6.57;;;3.28;;
47103;SDS011;32853;52.164;5.400;2022-10-10T02:09:56;6.70;;;3.33;;
47103;SDS011;32853;52.164;5.400;2022-10-10T02:12:25;8.40;;;4.00;;
47103;SDS011;32853;52.164;5.400;2022-10-10T02:15:29;7.28;;;3.58;;
47103;SDS011;32853;52.164;5.400;2022-10-10T02:17:49;4.93;;;2.97;;
47103;SDS011;32853;52.164;5.400;2022-10-10T02:20:24;5.22;;;2.92;;
47103;SDS011;32853;52.164;5.400;2022-10-10T02:22:56;6.22;;;3.25;;
47103;SDS011;32853;52.164;5.400;2022-10-10T02:25:28;9.55;;;3.78;;
47103;SDS011;32853;52.164;5.400;2022-10-10T02:28:11;11.13;;;3.78;;
47103;SDS011;32853;52.164;5.400;2022-10-10T02:30:47;7.83;;;3.37;;
47103;SDS011;32853;52.164;5.400;2022-10-10T02:33:18;10.15;;;3.80;;
47103;SDS011;32853;52.164;5.400;2022-10-10T02:36:05;10.75;;;3.70;;
47103;SDS011;32853;52.164;5.400;2022-10-10T02:38:31;6.38;;;3.50;;
47103;SDS011;32853;52.164;5.400;2022-10-10T02:40:56;4.70;;;3.10;;
47103;SDS011;32853;52.164;5.400;2022-10-10T02:43:28;8.07;;;3.17;;
47103;SDS011;32853;52.164;5.400;2022-10-10T02:45:56;5.47;;;3.15;;
47103;SDS011;32853;52.164;5.400;2022-10-10T02:48:25;6.35;;;3.28;;
47103;SDS011;32853;52.164;5.400;2022-10-10T02:50:50;9.98;;;3.65;;
47103;SDS011;32853;52.164;5.400;2022-10-10T02:53:16;3.30;;;2.47;;
47103;SDS011;32853;52.164;5.400;2022-10-10T02:55:41;9.73;;;3.05;;
47103;SDS011;32853;52.164;5.400;2022-10-10T02:58:08;5.68;;;3.25;;
47103;SDS011;32853;52.164;5.400;2022-10-10T03:00:36;6.72;;;3.72;;
47103;SDS011;32853;52.164;5.400;2022-10-10T03:03:05;7.07;;;3.90;;
47103;SDS011;32853;52.164;5.400;2022-10-10T03:05:30;6.50;;;3.60;;
47103;SDS011;32853;52.164;5.400;2022-10-10T03:08:05;6.05;;;3.70;;
47103;SDS011;32853;52.164;5.400;2022-10-10T03:10:30;7.75;;;4.47;;
47103;SDS011;32853;52.164;5.400;2022-10-10T03:12:59;8.13;;;3.70;;
47103;SDS011;32853;52.164;5.400;2022-10-10T03:15:26;10.57;;;3.42;;
47103;SDS011;32853;52.164;5.400;2022-10-10T03:17:52;5.22;;;3.35;;
47103;SDS011;32853;52.164;5.400;2022-10-10T03:20:19;7.55;;;4.22;;
47103;SDS011;32853;52.164;5.400;2022-10-10T03:22:47;8.98;;;3.88;;
47103;SDS011;32853;52.164;5.400;2022-10-10T03:27:42;5.32;;;3.85;;
47103;SDS011;32853;52.164;5.400;2022-10-10T03:30:07;7.65;;;3.50;;
47103;SDS011;32853;52.164;5.400;2022-10-10T03:32:33;7.07;;;3.83;;
47103;SDS011;32853;52.164;5.400;2022-10-10T03:34:58;7.10;;;3.65;;
47103;SDS011;32853;52.164;5.400;2022-10-10T03:37:24;7.50;;;3.15;;
47103;SDS011;32853;52.164;5.400;2022-10-10T03:39:49;5.28;;;3.47;;
47103;SDS011;32853;52.164;5.400;2022-10-10T03:42:14;5.70;;;3.70;;
47103;SDS011;32853;52.164;5.400;2022-10-10T03:44:40;8.48;;;3.60;;
47103;SDS011;32853;52.164;5.400;2022-10-10T03:47:05;11.95;;;3.17;;
47103;SDS011;32853;52.164;5.400;2022-10-10T03:49:30;8.43;;;3.92;;
47103;SDS011;32853;52.164;5.400;2022-10-10T03:51:55;8.80;;;3.60;;
47103;SDS011;32853;52.164;5.400;2022-10-10T03:54:21;7.55;;;3.22;;
47103;SDS011;32853;52.164;5.400;2022-10-10T03:56:46;11.65;;;4.78;;
47103;SDS011;32853;52.164;5.400;2022-10-10T04:01:46;6.22;;;4.32;;
47103;SDS011;32853;52.164;5.400;2022-10-10T04:04:16;6.05;;;3.45;;
47103;SDS011;32853;52.164;5.400;2022-10-10T04:06:47;7.68;;;3.58;;
47103;SDS011;32853;52.164;5.400;2022-10-10T04:09:13;10.75;;;4.05;;
47103;SDS011;32853;52.164;5.400;2022-10-10T04:11:40;4.88;;;4.13;;
47103;SDS011;32853;52.164;5.400;2022-10-10T04:14:12;7.68;;;4.65;;
47103;SDS011;32853;52.164;5.400;2022-10-10T04:16:37;7.65;;;3.40;;
47103;SDS011;32853;52.164;5.400;2022-10-10T04:19:06;4.68;;;3.65;;
47103;SDS011;32853;52.164;5.400;2022-10-10T04:21:34;9.50;;;3.72;;
47103;SDS011;32853;52.164;5.400;2022-10-10T04:24:09;9.23;;;3.85;;
47103;SDS011;32853;52.164;5.400;2022-10-10T04:29:06;5.22;;;3.42;;
47103;SDS011;32853;52.164;5.400;2022-10-10T04:31:32;8.82;;;4.25;;
47103;SDS011;32853;52.164;5.400;2022-10-10T04:33:58;11.13;;;3.67;;
47103;SDS011;32853;52.164;5.400;2022-10-10T04:36:23;5.57;;;3.58;;
47103;SDS011;32853;52.164;5.400;2022-10-10T04:38:49;7.13;;;3.70;;
47103;SDS011;32853;52.164;5.400;2022-10-10T04:41:14;9.32;;;4.00;;
47103;SDS011;32853;52.164;5.400;2022-10-10T04:43:40;14.18;;;3.78;;
47103;SDS011;32853;52.164;5.400;2022-10-10T04:46:05;13.07;;;4.07;;
47103;SDS011;32853;52.164;5.400;2022-10-10T04:48:30;8.18;;;4.90;;
47103;SDS011;32853;52.164;5.400;2022-10-10T04:50:59;10.40;;;4.05;;
47103;SDS011;32853;52.164;5.400;2022-10-10T04:53:24;6.45;;;3.90;;
47103;SDS011;32853;52.164;5.400;2022-10-10T04:55:51;6.70;;;4.15;;
47103;SDS011;32853;52.164;5.400;2022-10-10T04:58:18;9.55;;;4.47;;
47103;SDS011;32853;52.164;5.400;2022-10-10T05:00:44;5.68;;;3.92;;
47103;SDS011;32853;52.164;5.400;2022-10-10T05:03:14;8.63;;;3.72;;
47103;SDS011;32853;52.164;5.400;2022-10-10T05:05:55;6.60;;;4.20;;
47103;SDS011;32853;52.164;5.400;2022-10-10T05:10:53;8.07;;;5.05;;
47103;SDS011;32853;52.164;5.400;2022-10-10T05:13:20;8.50;;;3.83;;
47103;SDS011;32853;52.164;5.400;2022-10-10T05:15:48;7.15;;;4.15;;
47103;SDS011;32853;52.164;5.400;2022-10-10T05:18:15;6.47;;;3.72;;
47103;SDS011;32853;52.164;5.400;2022-10-10T05:20:41;7.90;;;4.20;;
47103;SDS011;32853;52.164;5.400;2022-10-10T05:23:07;15.88;;;4.05;;
47103;SDS011;32853;52.164;5.400;2022-10-10T05:25:38;9.82;;;3.90;;
47103;SDS011;32853;52.164;5.400;2022-10-10T05:28:03;6.53;;;4.00;;
47103;SDS011;32853;52.164;5.400;2022-10-10T05:30:29;7.10;;;4.60;;
47103;SDS011;32853;52.164;5.400;2022-10-10T05:32:54;8.68;;;4.28;;
47103;SDS011;32853;52.164;5.400;2022-10-10T05:35:19;9.15;;;4.28;;
47103;SDS011;32853;52.164;5.400;2022-10-10T05:37:46;8.18;;;4.13;;
47103;SDS011;32853;52.164;5.400;2022-10-10T05:40:11;9.13;;;4.38;;
47103;SDS011;32853;52.164;5.400;2022-10-10T05:42:36;7.40;;;4.25;;
47103;SDS011;32853;52.164;5.400;2022-10-10T05:45:02;8.18;;;4.03;;
47103;SDS011;32853;52.164;5.400;2022-10-10T05:50:23;7.63;;;4.07;;
47103;SDS011;32853;52.164;5.400;2022-10-10T05:52:58;9.80;;;4.10;;
47103;SDS011;32853;52.164;5.400;2022-10-10T05:55:24;10.95;;;4.13;;
47103;SDS011;32853;52.164;5.400;2022-10-10T05:57:49;8.43;;;4.45;;
47103;SDS011;32853;52.164;5.400;2022-10-10T06:00:32;7.88;;;4.47;;
47103;SDS011;32853;52.164;5.400;2022-10-10T06:02:59;9.43;;;4.43;;
47103;SDS011;32853;52.164;5.400;2022-10-10T06:05:24;9.13;;;5.30;;
47103;SDS011;32853;52.164;5.400;2022-10-10T06:07:49;9.48;;;3.88;;
47103;SDS011;32853;52.164;5.400;2022-10-10T06:12:48;9.20;;;4.38;;
47103;SDS011;32853;52.164;5.400;2022-10-10T06:18:08;9.15;;;4.75;;
47103;SDS011;32853;52.164;5.400;2022-10-10T06:20:45;7.22;;;4.13;;
47103;SDS011;32853;52.164;5.400;2022-10-10T06:23:10;7.93;;;3.50;;
47103;SDS011;32853;52.164;5.400;2022-10-10T06:25:36;10.95;;;4.28;;
47103;SDS011;32853;52.164;5.400;2022-10-10T06:28:01;10.02;;;5.65;;
47103;SDS011;32853;52.164;5.400;2022-10-10T06:30:28;11.30;;;4.85;;
47103;SDS011;32853;52.164;5.400;2022-10-10T06:32:55;9.48;;;4.43;;
47103;SDS011;32853;52.164;5.400;2022-10-10T06:35:22;13.80;;;4.50;;
47103;SDS011;32853;52.164;5.400;2022-10-10T06:37:47;10.18;;;4.35;;
47103;SDS011;32853;52.164;5.400;2022-10-10T06:40:12;12.02;;;4.43;;
47103;SDS011;32853;52.164;5.400;2022-10-10T06:42:41;6.78;;;4.20;;
47103;SDS011;32853;52.164;5.400;2022-10-10T06:45:06;9.85;;;5.07;;
47103;SDS011;32853;52.164;5.400;2022-10-10T06:47:32;8.70;;;4.28;;
47103;SDS011;32853;52.164;5.400;2022-10-10T06:49:58;8.98;;;4.95;;
47103;SDS011;32853;52.164;5.400;2022-10-10T06:52:23;9.02;;;4.45;;
47103;SDS011;32853;52.164;5.400;2022-10-10T06:54:49;10.00;;;4.40;;
47103;SDS011;32853;52.164;5.400;2022-10-10T06:57:17;6.75;;;4.18;;
47103;SDS011;32853;52.164;5.400;2022-10-10T06:59:42;9.30;;;4.57;;
47103;SDS011;32853;52.164;5.400;2022-10-10T07:02:09;5.45;;;3.97;;
47103;SDS011;32853;52.164;5.400;2022-10-10T07:04:38;7.95;;;4.07;;
47103;SDS011;32853;52.164;5.400;2022-10-10T07:07:05;9.80;;;4.55;;
47103;SDS011;32853;52.164;5.400;2022-10-10T07:09:37;9.90;;;5.00;;
47103;SDS011;32853;52.164;5.400;2022-10-10T07:12:02;11.77;;;5.57;;
47103;SDS011;32853;52.164;5.400;2022-10-10T07:14:28;7.00;;;4.35;;
47103;SDS011;32853;52.164;5.400;2022-10-10T07:16:53;9.93;;;4.35;;
47103;SDS011;32853;52.164;5.400;2022-10-10T07:19:19;11.48;;;4.30;;
47103;SDS011;32853;52.164;5.400;2022-10-10T07:21:45;11.98;;;4.63;;
47103;SDS011;32853;52.164;5.400;2022-10-10T07:24:10;11.65;;;4.60;;
47103;SDS011;32853;52.164;5.400;2022-10-10T07:26:36;7.00;;;3.80;;
47103;SDS011;32853;52.164;5.400;2022-10-10T07:29:02;7.53;;;4.47;;
47103;SDS011;32853;52.164;5.400;2022-10-10T07:31:29;7.07;;;3.80;;
47103;SDS011;32853;52.164;5.400;2022-10-10T07:33:54;8.25;;;4.13;;
47103;SDS011;32853;52.164;5.400;2022-10-10T07:36:19;8.63;;;4.35;;
47103;SDS011;32853;52.164;5.400;2022-10-10T07:38:47;21.75;;;5.50;;
47103;SDS011;32853;52.164;5.400;2022-10-10T07:41:15;8.10;;;4.88;;
47103;SDS011;32853;52.164;5.400;2022-10-10T07:43:40;9.73;;;4.55;;
47103;SDS011;32853;52.164;5.400;2022-10-10T07:46:11;15.88;;;4.10;;
47103;SDS011;32853;52.164;5.400;2022-10-10T07:48:39;10.52;;;4.43;;
47103;SDS011;32853;52.164;5.400;2022-10-10T07:51:05;6.03;;;3.88;;
47103;SDS011;32853;52.164;5.400;2022-10-10T07:53:31;8.18;;;4.30;;
47103;SDS011;32853;52.164;5.400;2022-10-10T07:55:56;11.32;;;4.78;;
47103;SDS011;32853;52.164;5.400;2022-10-10T07:58:21;7.90;;;3.97;;
47103;SDS011;32853;52.164;5.400;2022-10-10T08:00:47;7.85;;;3.72;;
47103;SDS011;32853;52.164;5.400;2022-10-10T08:03:12;8.20;;;4.20;;
47103;SDS011;32853;52.164;5.400;2022-10-10T08:05:42;10.93;;;4.60;;
47103;SDS011;32853;52.164;5.400;2022-10-10T08:08:09;13.60;;;3.95;;
47103;SDS011;32853;52.164;5.400;2022-10-10T08:10:35;14.43;;;4.82;;
47103;SDS011;32853;52.164;5.400;2022-10-10T08:13:06;11.25;;;4.80;;
47103;SDS011;32853;52.164;5.400;2022-10-10T08:15:31;7.97;;;3.80;;
47103;SDS011;32853;52.164;5.400;2022-10-10T08:17:56;10.60;;;4.65;;
47103;SDS011;32853;52.164;5.400;2022-10-10T08:20:22;12.77;;;3.60;;
47103;SDS011;32853;52.164;5.400;2022-10-10T08:22:53;14.25;;;4.18;;
47103;SDS011;32853;52.164;5.400;2022-10-10T08:25:29;12.38;;;4.40;;
47103;SDS011;32853;52.164;5.400;2022-10-10T08:27:57;6.78;;;4.13;;
47103;SDS011;32853;52.164;5.400;2022-10-10T08:30:23;11.88;;;4.00;;
47103;SDS011;32853;52.164;5.400;2022-10-10T08:32:48;9.77;;;4.18;;
47103;SDS011;32853;52.164;5.400;2022-10-10T08:35:15;6.70;;;3.65;;
47103;SDS011;32853;52.164;5.400;2022-10-10T08:37:50;9.20;;;3.65;;
47103;SDS011;32853;52.164;5.400;2022-10-10T08:40:17;6.15;;;3.35;;
47103;SDS011;32853;52.164;5.400;2022-10-10T08:42:48;9.70;;;4.72;;
47103;SDS011;32853;52.164;5.400;2022-10-10T08:45:32;7.93;;;4.20;;
47103;SDS011;32853;52.164;5.400;2022-10-10T08:48:11;10.02;;;3.70;;
47103;SDS011;32853;52.164;5.400;2022-10-10T08:50:47;6.28;;;3.75;;
47103;SDS011;32853;52.164;5.400;2022-10-10T08:53:19;7.57;;;3.53;;
47103;SDS011;32853;52.164;5.400;2022-10-10T08:55:50;7.85;;;4.13;;
47103;SDS011;32853;52.164;5.400;2022-10-10T09:00:44;18.23;;;3.83;;
47103;SDS011;32853;52.164;5.400;2022-10-10T09:03:17;10.00;;;4.32;;
47103;SDS011;32853;52.164;5.400;2022-10-10T09:20:26;8.23;;;4.10;;
47103;SDS011;32853;52.164;5.400;2022-10-10T09:23:00;6.38;;;2.97;;
47103;SDS011;32853;52.164;5.400;2022-10-10T09:25:52;10.27;;;2.97;;
47103;SDS011;32853;52.164;5.400;2022-10-10T09:28:32;9.18;;;3.65;;
47103;SDS011;32853;52.164;5.400;2022-10-10T09:31:23;10.68;;;4.07;;
47103;SDS011;32853;52.164;5.400;2022-10-10T09:33:58;6.45;;;3.05;;
47103;SDS011;32853;52.164;5.400;2022-10-10T09:36:32;7.57;;;3.90;;
47103;SDS011;32853;52.164;5.400;2022-10-10T09:39:03;8.85;;;3.70;;
47103;SDS011;32853;52.164;5.400;2022-10-10T09:41:53;7.45;;;3.58;;
47103;SDS011;32853;52.164;5.400;2022-10-10T09:44:23;8.65;;;3.85;;
47103;SDS011;32853;52.164;5.400;2022-10-10T09:46:48;5.75;;;3.00;;
47103;SDS011;32853;52.164;5.400;2022-10-10T09:49:14;6.78;;;2.83;;
47103;SDS011;32853;52.164;5.400;2022-10-10T09:51:42;9.13;;;3.92;;
47103;SDS011;32853;52.164;5.400;2022-10-10T09:54:08;9.38;;;3.75;;
47103;SDS011;32853;52.164;5.400;2022-10-10T09:56:37;8.98;;;3.42;;
47103;SDS011;32853;52.164;5.400;2022-10-10T10:02:22;5.32;;;2.65;;
47103;SDS011;32853;52.164;5.400;2022-10-10T10:04:49;8.02;;;3.65;;
47103;SDS011;32853;52.164;5.400;2022-10-10T10:12:41;8.18;;;3.70;;
47103;SDS011;32853;52.164;5.400;2022-10-10T10:20:47;6.10;;;3.35;;
47103;SDS011;32853;52.164;5.400;2022-10-10T10:23:26;9.45;;;3.58;;
47103;SDS011;32853;52.164;5.400;2022-10-10T10:26:14;7.88;;;3.67;;
47103;SDS011;32853;52.164;5.400;2022-10-10T10:28:39;8.43;;;3.22;;
47103;SDS011;32853;52.164;5.400;2022-10-10T10:31:10;13.02;;;3.83;;
47103;SDS011;32853;52.164;5.400;2022-10-10T10:33:56;7.63;;;3.95;;
47103;SDS011;32853;52.164;5.400;2022-10-10T11:01:35;9.07;;;3.78;;
47103;SDS011;32853;52.164;5.400;2022-10-10T11:10:21;8.55;;;5.22;;
47103;SDS011;32853;52.164;5.400;2022-10-10T11:13:02;10.40;;;3.60;;
47103;SDS011;32853;52.164;5.400;2022-10-10T11:15:40;8.27;;;3.38;;
47103;SDS011;32853;52.164;5.400;2022-10-10T11:18:11;14.98;;;3.50;;
47103;SDS011;32853;52.164;5.400;2022-10-10T11:21:26;13.65;;;2.53;;
47103;SDS011;32853;52.164;5.400;2022-10-10T11:23:34;10.38;;;3.25;;
47103;SDS011;32853;52.164;5.400;2022-10-10T11:26:03;5.68;;;3.20;;
47103;SDS011;32853;52.164;5.400;2022-10-10T11:28:37;7.47;;;2.92;;
47103;SDS011;32853;52.164;5.400;2022-10-10T11:34:29;6.38;;;3.13;;
47103;SDS011;32853;52.164;5.400;2022-10-10T11:37:07;9.50;;;2.88;;
47103;SDS011;32853;52.164;5.400;2022-10-10T11:39:44;7.20;;;2.67;;
47103;SDS011;32853;52.164;5.400;2022-10-10T11:42:18;9.35;;;3.40;;
47103;SDS011;32853;52.164;5.400;2022-10-10T11:45:03;15.15;;;3.88;;
47103;SDS011;32853;52.164;5.400;2022-10-10T11:47:38;14.18;;;3.47;;
47103;SDS011;32853;52.164;5.400;2022-10-10T11:55:46;6.72;;;2.78;;
47103;SDS011;32853;52.164;5.400;2022-10-10T12:01:13;4.97;;;2.92;;
47103;SDS011;32853;52.164;5.400;2022-10-10T12:03:50;12.13;;;4.00;;
47103;SDS011;32853;52.164;5.400;2022-10-10T12:09:37;11.13;;;2.90;;
47103;SDS011;32853;52.164;5.400;2022-10-10T12:12:11;9.07;;;3.15;;
47103;SDS011;32853;52.164;5.400;2022-10-10T12:14:43;8.20;;;3.25;;
47103;SDS011;32853;52.164;5.400;2022-10-10T12:17:35;10.35;;;3.08;;
47103;SDS011;32853;52.164;5.400;2022-10-10T12:20:09;10.25;;;3.28;;
47103;SDS011;32853;52.164;5.400;2022-10-10T12:22:38;13.70;;;4.03;;
47103;SDS011;32853;52.164;5.400;2022-10-10T12:33:02;10.10;;;4.35;;
47103;SDS011;32853;52.164;5.400;2022-10-10T12:35:40;14.90;;;3.42;;
47103;SDS011;32853;52.164;5.400;2022-10-10T12:43:25;11.90;;;4.57;;
47103;SDS011;32853;52.164;5.400;2022-10-10T12:46:35;8.98;;;4.47;;
47103;SDS011;32853;52.164;5.400;2022-10-10T12:49:02;12.75;;;4.65;;
47103;SDS011;32853;52.164;5.400;2022-10-10T12:51:36;11.07;;;3.55;;
47103;SDS011;32853;52.164;5.400;2022-10-10T12:54:02;11.98;;;4.43;;
47103;SDS011;32853;52.164;5.400;2022-10-10T12:56:31;10.80;;;5.65;;
47103;SDS011;32853;52.164;5.400;2022-10-10T12:58:58;12.32;;;4.70;;
47103;SDS011;32853;52.164;5.400;2022-10-10T13:01:28;10.57;;;4.43;;
47103;SDS011;32853;52.164;5.400;2022-10-10T13:03:58;13.65;;;4.05;;
47103;SDS011;32853;52.164;5.400;2022-10-10T13:06:39;15.77;;;4.85;;
47103;SDS011;32853;52.164;5.400;2022-10-10T13:09:22;15.88;;;4.20;;
47103;SDS011;32853;52.164;5.400;2022-10-10T13:11:50;8.17;;;3.13;;
47103;SDS011;32853;52.164;5.400;2022-10-10T13:14:18;8.05;;;3.42;;
47103;SDS011;32853;52.164;5.400;2022-10-10T13:16:43;9.57;;;3.78;;
47103;SDS011;32853;52.164;5.400;2022-10-10T13:19:15;9.10;;;3.15;;
47103;SDS011;32853;52.164;5.400;2022-10-10T13:21:51;10.75;;;2.50;;
47103;SDS011;32853;52.164;5.400;2022-10-10T13:24:19;13.00;;;2.80;;
47103;SDS011;32853;52.164;5.400;2022-10-10T13:26:51;6.82;;;2.60;;
47103;SDS011;32853;52.164;5.400;2022-10-10T13:31:50;11.13;;;2.42;;
47103;SDS011;32853;52.164;5.400;2022-10-10T13:37:18;4.70;;;1.60;;
47103;SDS011;32853;52.164;5.400;2022-10-10T13:39:46;7.65;;;1.60;;
47103;SDS011;32853;52.164;5.400;2022-10-10T13:51:13;0.75;;;0.22;;
47103;SDS011;32853;52.164;5.400;2022-10-10T13:53:50;0.70;;;0.13;;
47103;SDS011;32853;52.164;5.400;2022-10-10T13:56:20;1.08;;;0.10;;
47103;SDS011;32853;52.164;5.400;2022-10-10T14:06:35;0.85;;;0.20;;
47103;SDS011;32853;52.164;5.400;2022-10-10T14:14:48;2.72;;;0.30;;
47103;SDS011;32853;52.164;5.400;2022-10-10T14:17:15;2.05;;;0.65;;
47103;SDS011;32853;52.164;5.400;2022-10-10T14:19:41;2.55;;;0.47;;
47103;SDS011;32853;52.164;5.400;2022-10-10T14:22:11;9.63;;;0.77;;
47103;SDS011;32853;52.164;5.400;2022-10-10T14:24:37;2.33;;;0.47;;
47103;SDS011;32853;52.164;5.400;2022-10-10T14:27:06;2.33;;;0.68;;
47103;SDS011;32853;52.164;5.400;2022-10-10T14:29:57;4.63;;;0.82;;
47103;SDS011;32853;52.164;5.400;2022-10-10T14:32:22;9.65;;;1.33;;
47103;SDS011;32853;52.164;5.400;2022-10-10T14:34:48;5.15;;;0.50;;
47103;SDS011;32853;52.164;5.400;2022-10-10T14:45:25;5.32;;;0.55;;
47103;SDS011;32853;52.164;5.400;2022-10-10T14:47:50;9.57;;;0.65;;
47103;SDS011;32853;52.164;5.400;2022-10-10T14:50:19;9.68;;;0.90;;
47103;SDS011;32853;52.164;5.400;2022-10-10T14:52:49;6.65;;;0.95;;
47103;SDS011;32853;52.164;5.400;2022-10-10T14:55:15;6.97;;;1.73;;
47103;SDS011;32853;52.164;5.400;2022-10-10T14:57:41;6.28;;;0.80;;
47103;SDS011;32853;52.164;5.400;2022-10-10T15:00:10;8.48;;;1.13;;
47103;SDS011;32853;52.164;5.400;2022-10-10T15:02:44;4.93;;;1.10;;
47103;SDS011;32853;52.164;5.400;2022-10-10T15:05:10;5.63;;;0.52;;
47103;SDS011;32853;52.164;5.400;2022-10-10T15:07:45;9.50;;;0.90;;
47103;SDS011;32853;52.164;5.400;2022-10-10T15:10:14;8.40;;;0.93;;
47103;SDS011;32853;52.164;5.400;2022-10-10T15:12:42;12.10;;;1.05;;
47103;SDS011;32853;52.164;5.400;2022-10-10T15:15:11;6.22;;;0.70;;
47103;SDS011;32853;52.164;5.400;2022-10-10T15:17:38;8.02;;;1.20;;
47103;SDS011;32853;52.164;5.400;2022-10-10T15:20:04;10.38;;;1.00;;
47103;SDS011;32853;52.164;5.400;2022-10-10T15:22:33;7.28;;;0.90;;
47103;SDS011;32853;52.164;5.400;2022-10-10T15:25:00;13.27;;;0.93;;
47103;SDS011;32853;52.164;5.400;2022-10-10T15:27:32;11.18;;;1.35;;
47103;SDS011;32853;52.164;5.400;2022-10-10T15:29:58;12.75;;;0.98;;
47103;SDS011;32853;52.164;5.400;2022-10-10T15:32:25;10.15;;;1.48;;
47103;SDS011;32853;52.164;5.400;2022-10-10T15:34:50;11.43;;;1.50;;
47103;SDS011;32853;52.164;5.400;2022-10-10T15:37:19;12.40;;;0.90;;
47103;SDS011;32853;52.164;5.400;2022-10-10T15:39:47;10.02;;;1.35;;
47103;SDS011;32853;52.164;5.400;2022-10-10T15:42:19;6.88;;;0.90;;
47103;SDS011;32853;52.164;5.400;2022-10-10T15:44:45;11.77;;;1.27;;
47103;SDS011;32853;52.164;5.400;2022-10-10T15:47:13;10.15;;;1.05;;
47103;SDS011;32853;52.164;5.400;2022-10-10T15:49:58;9.45;;;0.70;;
47103;SDS011;32853;52.164;5.400;2022-10-10T15:52:31;14.32;;;1.27;;
47103;SDS011;32853;52.164;5.400;2022-10-10T15:55:20;6.53;;;1.15;;
47103;SDS011;32853;52.164;5.400;2022-10-10T15:58:35;4.65;;;1.73;;
47103;SDS011;32853;52.164;5.400;2022-10-10T16:01:36;9.05;;;0.95;;
47103;SDS011;32853;52.164;5.400;2022-10-10T16:04:11;9.50;;;0.82;;
47103;SDS011;32853;52.164;5.400;2022-10-10T16:09:06;8.18;;;1.20;;
47103;SDS011;32853;52.164;5.400;2022-10-10T16:11:45;4.07;;;0.93;;
47103;SDS011;32853;52.164;5.400;2022-10-10T16:14:11;8.48;;;1.42;;
47103;SDS011;32853;52.164;5.400;2022-10-10T16:16:40;6.53;;;0.98;;
47103;SDS011;32853;52.164;5.400;2022-10-10T16:19:18;7.43;;;1.02;;
47103;SDS011;32853;52.164;5.400;2022-10-10T16:21:44;12.48;;;1.50;;
47103;SDS011;32853;52.164;5.400;2022-10-10T16:24:09;8.35;;;1.15;;
47103;SDS011;32853;52.164;5.400;2022-10-10T16:26:35;8.00;;;0.73;;
47103;SDS011;32853;52.164;5.400;2022-10-10T16:29:13;7.70;;;1.55;;
47103;SDS011;32853;52.164;5.400;2022-10-10T16:31:42;14.57;;;1.08;;
47103;SDS011;32853;52.164;5.400;2022-10-10T16:34:15;9.50;;;2.58;;
47103;SDS011;32853;52.164;5.400;2022-10-10T16:36:42;5.93;;;1.55;;
47103;SDS011;32853;52.164;5.400;2022-10-10T16:39:08;9.45;;;1.75;;
47103;SDS011;32853;52.164;5.400;2022-10-10T16:44:28;4.85;;;1.33;;
47103;SDS011;32853;52.164;5.400;2022-10-10T16:47:10;10.13;;;1.35;;
47103;SDS011;32853;52.164;5.400;2022-10-10T16:49:43;4.25;;;0.50;;
47103;SDS011;32853;52.164;5.400;2022-10-10T16:54:35;6.25;;;0.98;;
47103;SDS011;32853;52.164;5.400;2022-10-10T16:57:04;13.75;;;0.90;;
47103;SDS011;32853;52.164;5.400;2022-10-10T16:59:31;6.97;;;0.90;;
47103;SDS011;32853;52.164;5.400;2022-10-10T17:01:58;11.13;;;0.98;;
47103;SDS011;32853;52.164;5.400;2022-10-10T17:04:24;8.93;;;0.80;;
47103;SDS011;32853;52.164;5.400;2022-10-10T17:06:49;7.60;;;1.45;;
47103;SDS011;32853;52.164;5.400;2022-10-10T17:09:14;4.40;;;0.77;;
47103;SDS011;32853;52.164;5.400;2022-10-10T17:11:41;12.23;;;2.22;;
47103;SDS011;32853;52.164;5.400;2022-10-10T17:14:07;8.27;;;1.30;;
47103;SDS011;32853;52.164;5.400;2022-10-10T17:16:33;9.23;;;1.60;;
47103;SDS011;32853;52.164;5.400;2022-10-10T17:18:58;9.25;;;1.52;;
47103;SDS011;32853;52.164;5.400;2022-10-10T17:21:24;6.72;;;1.20;;
47103;SDS011;32853;52.164;5.400;2022-10-10T17:23:50;7.60;;;1.05;;
47103;SDS011;32853;52.164;5.400;2022-10-10T17:26:17;6.50;;;1.20;;
47103;SDS011;32853;52.164;5.400;2022-10-10T17:28:46;8.77;;;2.22;;
47103;SDS011;32853;52.164;5.400;2022-10-10T17:31:13;9.27;;;1.20;;
47103;SDS011;32853;52.164;5.400;2022-10-10T17:33:40;8.18;;;1.38;;
47103;SDS011;32853;52.164;5.400;2022-10-10T17:36:07;4.72;;;1.10;;
47103;SDS011;32853;52.164;5.400;2022-10-10T17:38:35;9.40;;;1.75;;
47103;SDS011;32853;52.164;5.400;2022-10-10T17:41:01;17.85;;;1.92;;
47103;SDS011;32853;52.164;5.400;2022-10-10T17:43:27;6.90;;;1.30;;
47103;SDS011;32853;52.164;5.400;2022-10-10T17:46:03;7.10;;;1.20;;
47103;SDS011;32853;52.164;5.400;2022-10-10T17:48:30;9.65;;;2.08;;
47103;SDS011;32853;52.164;5.400;2022-10-10T17:50:56;13.25;;;1.73;;
47103;SDS011;32853;52.164;5.400;2022-10-10T17:53:21;7.18;;;1.90;;
47103;SDS011;32853;52.164;5.400;2022-10-10T17:55:48;7.03;;;1.77;;
47103;SDS011;32853;52.164;5.400;2022-10-10T17:58:13;9.10;;;1.58;;
47103;SDS011;32853;52.164;5.400;2022-10-10T18:00:39;14.90;;;2.45;;